EDDB Airport Information

Runway Information
Runway 07L Length 8891 ft width 148 ft
Elevation 148 ft Threshold 0 ft Heading 69
Runway 25R Length 8891 ft Width 148 ft
Elevation 145 ft Threshold 0 ft Heading 249
Runway 07R Length 9843 ft width 148 ft
Elevation 146 ft Threshold 0 ft Heading 69
Runway 25L Length 9843 ft Width 148 ft
Elevation 155 ft Threshold 0 ft Heading 249
Airport Frequencies
Type AFIS Name BERLIN INF Frequency 132.65 MHZ
Type APP Name BERLIN ARR Frequency 119.625 MHZ
Type ATIS Name ATIS Frequency 124.95 MHZ
Type DEP Name BERLIN DEP Frequency 120.625 MHZ
Type DIR Name BERLIN DIR Frequency 136.1 MHZ
Type GND Name GND Frequency 121.6 MHZ
Type INFO Name INFO Frequency 122.7 MHZ
Type TWR Name TWR Frequency 120.025 MHZ
Airport Navaids
Type DME Name Schonefeld Frequency 114400 KHZ
Type NDB Name Schonefeld Frequency 362 KHZ
Airport Weather Information & NOTAM
ADDS - METARS form results

(1313 UTC 12 August 2020)
Data provider http://aviationweather.gov/metar/data/
 
METAR text: EDDB 121250Z 08008KT 030V110 CAVOK 31/08 Q1019 NOSIG
Conditions at: EDDB (BERLIN/SCHONEFEL, DE) observed 1250 UTC 12 August 2020
Temperature: 31.0°C (88°F)
Dewpoint: 8.0°C (46°F) [RH = 24%]
Pressure (altimeter): 30.09 inches Hg (1019.0 mb)
Winds: from the E (80 degrees) at 9 MPH (8 knots; 4.1 m/s)
Visibility: 6 or more miles (10+ km)
Ceiling: ceiling and visibility are OK
Clouds: unknown
Weather: no significant weather observed at this time

METAR text: EDDB 121220Z VRB06KT CAVOK 31/08 Q1019 NOSIG
Conditions at: EDDB (BERLIN/SCHONEFEL, DE) observed 1220 UTC 12 August 2020
Temperature: 31.0°C (88°F)
Dewpoint: 8.0°C (46°F) [RH = 24%]
Pressure (altimeter): 30.09 inches Hg (1019.0 mb)
Winds: variable direction winds at 7 MPH (6 knots; 3.1 m/s)
Visibility: 6 or more miles (10+ km)
Ceiling: ceiling and visibility are OK
Clouds: unknown
Weather: no significant weather observed at this time

Forecast for: EDDB (BERLIN/SCHONEFEL, DE)
Text: TAF EDDB 121100Z 1212/1312 08009KT CAVOK
Forecast period: 1200 UTC 12 August 2020 to 1200 UTC 13 August 2020
Forecast type: FROM: standard forecast or significant change
Winds: from the E (80 degrees) at 10 MPH (9 knots; 4.6 m/s)
Visibility: 6 or more miles (10+ km)
Ceiling: unknown
Clouds: missing
Weather: NSW  (no significant weather)